MSC Cordoba — A8OF8 — position and weather

sailwx.info

Track history (hours):
 
Tides and Currents Weather Stations Pressure Air Temp Water Temp Dewpoint Dewpoint Depression Visibility Wind Speed Wind Dir Waves Ship Positions

MSC Cordoba

Last reported at 2014-Jul-27 01:04 UTC. Time now 2014-Jul-28 14:24 UTC.
Position N 40°01' E 026°12'.

Length 275 m; draft 11.8 m.

Type: Ship. MMSI: 636091473.

Date/timePositionNaut miles runAvg speedWind from/ knotsBaromVisibWave heightAir tempDewpointWater temp
2014-Jul-27 01:04N 40°01' E 026°12'2415.2
2014-Jul-26 23:28N 39°47' E 025°46'6020.4
2014-Jul-26 20:32N 38°53' E 025°13'10419.9
2014-Jul-26 15:20N 37°25' E 024°03'4320.4
2014-Jul-26 13:14N 36°49' E 023°34'1721.0
2014-Jul-26 12:25N 36°34' E 023°24'38719.4
2014-Jul-25 16:29N 36°27' E 015°22'1920.1
2014-Jul-25 15:32N 36°27' E 014°58'2019.9
2014-Jul-25 14:33N 36°28' E 014°34'2019.9
2014-Jul-25 13:33N 36°33' E 014°10'2019.7
2014-Jul-25 12:33N 36°37' E 013°46'2019.8
2014-Jul-25 11:33N 36°41' E 013°22'2020.0
2014-Jul-25 10:33N 36°46' E 012°57'2120.8
2014-Jul-25 09:33N 36°52' E 012°33'2020.3
2014-Jul-25 08:33N 36°59' E 012°09'2019.8
2014-Jul-25 07:33N 37°07' E 011°46'2019.9
2014-Jul-25 06:33N 37°16' E 011°23'2119.7
2014-Jul-25 05:29N 37°25' E 010°59'1819.5
2014-Jul-25 04:33N 37°30' E 010°37'2020.3
2014-Jul-25 03:33N 37°34' E 010°12'2120.7
2014-Jul-25 02:32N 37°31' E 009°46'2020.5
2014-Jul-25 01:33N 37°25' E 009°22'2020.0
2014-Jul-25 00:32N 37°21' E 008°57'1919.5
2014-Jul-24 23:33N 37°19' E 008°33'2019.7
2014-Jul-24 22:33N 37°18' E 008°08'2420.2
2014-Jul-24 21:21N 37°18' E 007°37'1620.6
2014-Jul-24 20:33N 37°17' E 007°17'2019.9
2014-Jul-24 19:31N 37°16' E 006°51'2219.5
2014-Jul-24 18:25N 37°15' E 006°24'1919.6
2014-Jul-24 17:26N 37°14' E 005°60'1719.7
2014-Jul-24 16:33N 37°13' E 005°38'2019.6
2014-Jul-24 15:33N 37°11' E 005°14'2020.0
2014-Jul-24 14:33N 37°09' E 004°49'2020.1
2014-Jul-24 13:33N 37°07' E 004°24'2020.3
2014-Jul-24 12:33N 37°06' E 003°58'2120.5
2014-Jul-24 11:33N 37°03' E 003°33'2120.8
2014-Jul-24 10:33N 36°59' E 003°07'2121.1
2014-Jul-24 09:33N 36°57' E 002°41'2321.0
2014-Jul-24 08:26N 36°53' E 002°12'2320.7
2014-Jul-24 07:20N 36°50' E 001°44'1620.8
2014-Jul-24 06:33N 36°48' E 001°23'2520.6
2014-Jul-24 05:19N 36°45' E 000°52'1720.7
2014-Jul-24 04:29N 36°42' E 000°31'1920.6
2014-Jul-24 03:33N 36°39' E 000°07'2020.5
2014-Jul-24 02:34N 36°35' W 000°18'2121.0
2014-Jul-24 01:33N 36°32' W 000°44'22620.5
2014-Jul-23 14:33N 35°58' W 005°20'2221.5
2014-Jul-23 13:33N 35°55' W 005°47'2221.6
2014-Jul-23 12:33N 35°54' W 006°13'2120.8
2014-Jul-23 11:33N 35°60' W 006°38'2120.5
2014-Jul-23 10:33N 36°05' W 007°03'2020.4
2014-Jul-23 09:33N 36°10' W 007°27'2020.5
2014-Jul-23 08:33N 36°15' W 007°52'2020.2
2014-Jul-23 07:33N 36°20' W 008°16'2020.1
2014-Jul-23 06:33N 36°25' W 008°40'2020.0
2014-Jul-23 05:33N 36°30' W 009°04'1919.1
2014-Jul-23 04:33N 36°39' W 009°25'2019.5
2014-Jul-23 03:33N 36°56' W 009°37'2320.2
2014-Jul-23 02:26N 37°18' W 009°43'1820.3
2014-Jul-23 01:33N 37°36' W 009°47'2120.3
2014-Jul-23 00:32N 37°56' W 009°52'2120.5
2014-Jul-22 23:30N 38°17' W 009°59'2020.1
2014-Jul-22 22:32N 38°35' W 010°05'2120.4
2014-Jul-22 21:30N 38°57' W 010°06'1920.3
2014-Jul-22 20:32N 39°16' W 010°06'2020.6
2014-Jul-22 19:33N 39°36' W 010°06'2220.3
2014-Jul-22 18:29N 39°58' W 010°06'2220.4
2014-Jul-22 17:25N 40°20' W 010°08'2220.4
2014-Jul-22 16:21N 40°41' W 010°08'71418.9
2014-Jul-21 02:33N 50°27' W 000°25'2019.6
2014-Jul-21 01:33N 50°32' E 000°05'2020.4
2014-Jul-21 00:33N 50°36' E 000°36'2120.9
2014-Jul-20 23:33N 50°48' E 001°02'2120.9
2014-Jul-20 22:33N 51°03' E 001°26'1818.5
2014-Jul-20 21:34N 51°16' E 001°48'1615.7
2014-Jul-20 20:33N 51°22' E 002°10'1717.2
2014-Jul-20 19:33N 51°23' E 002°38'1313.0
2014-Jul-20 18:33N 51°25' E 002°59'1515.1
2014-Jul-20 17:33N 51°25' E 003°23'1110.8
2014-Jul-20 16:33N 51°26' E 003°40'1010.4
2014-Jul-20 15:33N 51°22' E 003°56'8 8.5
2014-Jul-20 14:33N 51°23' E 004°09'5 4.9
2014-Jul-20 13:29N 51°21' E 004°17'1 1.5
2014-Jul-20 12:33N 51°20' E 004°18'1 1.1
2014-Jul-20 11:31N 51°20' E 004°20'0 0.0
2014-Jul-20 10:25N 51°20' E 004°20'0 0.0
2014-Jul-20 09:33N 51°20' E 004°20'0 0.0
2014-Jul-20 08:30N 51°20' E 004°20'0 0.0
2014-Jul-20 07:20N 51°20' E 004°20'0 0.0
2014-Jul-20 06:23N 51°20' E 004°20'0 0.0
2014-Jul-20 05:25N 51°20' E 004°20'0 0.0
2014-Jul-20 04:31N 51°20' E 004°20'0 0.0
2014-Jul-20 03:31N 51°20' E 004°20'0 0.0
2014-Jul-20 02:24N 51°20' E 004°20'0 0.0
2014-Jul-20 01:33N 51°20' E 004°20'0 0.0
2014-Jul-20 00:32N 51°20' E 004°20'0 0.0
2014-Jul-19 23:32N 51°20' E 004°20'0 0.0
2014-Jul-19 22:31N 51°20' E 004°20'0 0.0
2014-Jul-19 21:28N 51°20' E 004°20'0 0.0
2014-Jul-19 20:27N 51°20' E 004°20'0 0.0
2014-Jul-19 19:30N 51°20' E 004°20'0 0.0
2014-Jul-19 18:24N 51°20' E 004°20'0 0.0
2014-Jul-19 17:32N 51°20' E 004°20'0 0.0
2014-Jul-19 16:26N 51°20' E 004°20'0 0.0
2014-Jul-19 15:28N 51°20' E 004°20'0 0.0
2014-Jul-19 14:31N 51°20' E 004°20'0 0.0
2014-Jul-19 13:34N 51°20' E 004°20'0 0.0
2014-Jul-19 12:33N 51°20' E 004°20'0 0.0
2014-Jul-19 11:32N 51°20' E 004°20'1 1.2
2014-Jul-19 10:33N 51°20' E 004°18'1 1.3
2014-Jul-19 09:33N 51°21' E 004°17'2 1.7
2014-Jul-19 08:34N 51°21' E 004°15'8 8.0
2014-Jul-19 07:34N 51°23' E 004°02'1010.4
2014-Jul-19 06:34N 51°22' E 003°46'1010.2
2014-Jul-19 05:34N 51°25' E 003°31'1818.4
2014-Jul-19 04:34N 51°24' E 003°01'1413.7
2014-Jul-19 03:33N 51°22' E 002°40'1414.2
2014-Jul-19 02:34N 51°19' E 002°17'1918.8
2014-Jul-19 01:33N 51°30' E 001°52'2019.5
2014-Jul-19 00:34N 51°48' E 001°43'1111.0
2014-Jul-18 23:34N 51°56' E 001°31'8 7.8
2014-Jul-18 22:31N 51°58' E 001°18'0 0.0
2014-Jul-18 21:34N 51°58' E 001°18'0 0.0
2014-Jul-18 20:33N 51°58' E 001°18'0 0.0
2014-Jul-18 19:33N 51°58' E 001°18'0 0.0
2014-Jul-18 18:32N 51°58' E 001°18'0 0.0
2014-Jul-18 17:32N 51°58' E 001°18'0 0.0
2014-Jul-18 16:31N 51°58' E 001°18'0 0.0
2014-Jul-18 15:31N 51°58' E 001°18'0 0.0
2014-Jul-18 14:31N 51°58' E 001°18'0 0.0
2014-Jul-18 13:33N 51°58' E 001°18'0 0.0
2014-Jul-18 12:33N 51°58' E 001°18'0 0.0
2014-Jul-18 11:32N 51°58' E 001°18'0 0.0
2014-Jul-18 10:32N 51°58' E 001°18'0 0.0
2014-Jul-18 09:31N 51°58' E 001°18'0 0.0
2014-Jul-18 08:31N 51°58' E 001°18'0 0.0
2014-Jul-18 07:34N 51°58' E 001°18'0 0.0
2014-Jul-18 06:33N 51°58' E 001°18'0 0.0
2014-Jul-18 05:33N 51°58' E 001°18'0 0.0
2014-Jul-18 04:32N 51°58' E 001°18'0 0.0
2014-Jul-18 03:32N 51°58' E 001°18'0 0.0
2014-Jul-18 02:31N 51°58' E 001°18'0 0.0
2014-Jul-18 01:31N 51°58' E 001°18'0 0.0
2014-Jul-18 00:33N 51°58' E 001°18'0 0.1
2014-Jul-17 23:33N 51°58' E 001°18'5 5.4
2014-Jul-17 22:33N 51°56' E 001°26'10 9.6
2014-Jul-17 21:33N 51°52' E 001°40'7 6.7
2014-Jul-17 20:33N 51°57' E 001°46'2 1.6
2014-Jul-17 19:33N 51°56' E 001°48'1010.1
2014-Jul-17 18:33N 51°46' E 001°49'1010.3
2014-Jul-17 17:34N 51°35' E 001°50'1211.5
2014-Jul-17 16:34N 51°24' E 001°45'1818.1
2014-Jul-17 15:33N 51°06' E 001°40'2221.9
2014-Jul-17 14:33N 50°47' E 001°23'2120.8
2014-Jul-17 13:33N 50°32' E 001°01'2222.2
2014-Jul-17 12:33N 50°25' E 000°27'2923.0
2014-Jul-17 11:17N 50°18' W 000°17'1723.0
2014-Jul-17 10:32N 50°12' W 000°42'2522.7
2014-Jul-17 09:25N 50°05' W 001°20'2121.6
2014-Jul-17 08:28N 50°00' W 001°51'  
Track history (hours):
 
Tides and Currents Weather Stations Pressure Air Temp Water Temp Dewpoint Dewpoint Depression Visibility Wind Speed Wind Dir Waves Ship Positions

MSC Cordoba

Last reported at 2014-Jul-27 01:04 UTC. Time now 2014-Jul-28 14:24 UTC.
Position N 40°01' E 026°12'.

Length 275 m; draft 11.8 m.

Type: Ship. MMSI: 636091473.

Date/timePositionNaut miles runAvg speedWind from/ knotsBaromVisibWave heightAir tempDewpointWater temp
2014-Jul-27 01:04N 40°01' E 026°12'2415.2
2014-Jul-26 23:28N 39°47' E 025°46'6020.4
2014-Jul-26 20:32N 38°53' E 025°13'10419.9
2014-Jul-26 15:20N 37°25' E 024°03'4320.4
2014-Jul-26 13:14N 36°49' E 023°34'1721.0
2014-Jul-26 12:25N 36°34' E 023°24'38719.4
2014-Jul-25 16:29N 36°27' E 015°22'1920.1
2014-Jul-25 15:32N 36°27' E 014°58'2019.9
2014-Jul-25 14:33N 36°28' E 014°34'2019.9
2014-Jul-25 13:33N 36°33' E 014°10'2019.7
2014-Jul-25 12:33N 36°37' E 013°46'2019.8
2014-Jul-25 11:33N 36°41' E 013°22'2020.0
2014-Jul-25 10:33N 36°46' E 012°57'2120.8
2014-Jul-25 09:33N 36°52' E 012°33'2020.3
2014-Jul-25 08:33N 36°59' E 012°09'2019.8
2014-Jul-25 07:33N 37°07' E 011°46'2019.9
2014-Jul-25 06:33N 37°16' E 011°23'2119.7
2014-Jul-25 05:29N 37°25' E 010°59'1819.5
2014-Jul-25 04:33N 37°30' E 010°37'2020.3
2014-Jul-25 03:33N 37°34' E 010°12'2120.7
2014-Jul-25 02:32N 37°31' E 009°46'2020.5
2014-Jul-25 01:33N 37°25' E 009°22'2020.0
2014-Jul-25 00:32N 37°21' E 008°57'1919.5
2014-Jul-24 23:33N 37°19' E 008°33'2019.7
2014-Jul-24 22:33N 37°18' E 008°08'2420.2
2014-Jul-24 21:21N 37°18' E 007°37'1620.6
2014-Jul-24 20:33N 37°17' E 007°17'2019.9
2014-Jul-24 19:31N 37°16' E 006°51'2219.5
2014-Jul-24 18:25N 37°15' E 006°24'1919.6
2014-Jul-24 17:26N 37°14' E 005°60'1719.7
2014-Jul-24 16:33N 37°13' E 005°38'2019.6
2014-Jul-24 15:33N 37°11' E 005°14'2020.0
2014-Jul-24 14:33N 37°09' E 004°49'2020.1
2014-Jul-24 13:33N 37°07' E 004°24'2020.3
2014-Jul-24 12:33N 37°06' E 003°58'2120.5
2014-Jul-24 11:33N 37°03' E 003°33'2120.8
2014-Jul-24 10:33N 36°59' E 003°07'2121.1
2014-Jul-24 09:33N 36°57' E 002°41'2321.0
2014-Jul-24 08:26N 36°53' E 002°12'2320.7
2014-Jul-24 07:20N 36°50' E 001°44'1620.8
2014-Jul-24 06:33N 36°48' E 001°23'2520.6
2014-Jul-24 05:19N 36°45' E 000°52'1720.7
2014-Jul-24 04:29N 36°42' E 000°31'1920.6
2014-Jul-24 03:33N 36°39' E 000°07'2020.5
2014-Jul-24 02:34N 36°35' W 000°18'2121.0
2014-Jul-24 01:33N 36°32' W 000°44'22620.5
2014-Jul-23 14:33N 35°58' W 005°20'2221.5
2014-Jul-23 13:33N 35°55' W 005°47'2221.6
2014-Jul-23 12:33N 35°54' W 006°13'2120.8
2014-Jul-23 11:33N 35°60' W 006°38'2120.5
2014-Jul-23 10:33N 36°05' W 007°03'2020.4
2014-Jul-23 09:33N 36°10' W 007°27'2020.5
2014-Jul-23 08:33N 36°15' W 007°52'2020.2
2014-Jul-23 07:33N 36°20' W 008°16'2020.1
2014-Jul-23 06:33N 36°25' W 008°40'2020.0
2014-Jul-23 05:33N 36°30' W 009°04'1919.1
2014-Jul-23 04:33N 36°39' W 009°25'2019.5
2014-Jul-23 03:33N 36°56' W 009°37'2320.2
2014-Jul-23 02:26N 37°18' W 009°43'1820.3
2014-Jul-23 01:33N 37°36' W 009°47'2120.3
2014-Jul-23 00:32N 37°56' W 009°52'2120.5
2014-Jul-22 23:30N 38°17' W 009°59'2020.1
2014-Jul-22 22:32N 38°35' W 010°05'2120.4
2014-Jul-22 21:30N 38°57' W 010°06'1920.3
2014-Jul-22 20:32N 39°16' W 010°06'2020.6
2014-Jul-22 19:33N 39°36' W 010°06'2220.3
2014-Jul-22 18:29N 39°58' W 010°06'2220.4
2014-Jul-22 17:25N 40°20' W 010°08'2220.4
2014-Jul-22 16:21N 40°41' W 010°08'71418.9
2014-Jul-21 02:33N 50°27' W 000°25'2019.6
2014-Jul-21 01:33N 50°32' E 000°05'2020.4
2014-Jul-21 00:33N 50°36' E 000°36'2120.9
2014-Jul-20 23:33N 50°48' E 001°02'2120.9
2014-Jul-20 22:33N 51°03' E 001°26'1818.5
2014-Jul-20 21:34N 51°16' E 001°48'1615.7
2014-Jul-20 20:33N 51°22' E 002°10'1717.2
2014-Jul-20 19:33N 51°23' E 002°38'1313.0
2014-Jul-20 18:33N 51°25' E 002°59'1515.1
2014-Jul-20 17:33N 51°25' E 003°23'1110.8
2014-Jul-20 16:33N 51°26' E 003°40'1010.4
2014-Jul-20 15:33N 51°22' E 003°56'8 8.5
2014-Jul-20 14:33N 51°23' E 004°09'5 4.9
2014-Jul-20 13:29N 51°21' E 004°17'1 1.5
2014-Jul-20 12:33N 51°20' E 004°18'1 1.1
2014-Jul-20 11:31N 51°20' E 004°20'0 0.0
2014-Jul-20 10:25N 51°20' E 004°20'0 0.0
2014-Jul-20 09:33N 51°20' E 004°20'0 0.0
2014-Jul-20 08:30N 51°20' E 004°20'0 0.0
2014-Jul-20 07:20N 51°20' E 004°20'0 0.0
2014-Jul-20 06:23N 51°20' E 004°20'0 0.0
2014-Jul-20 05:25N 51°20' E 004°20'0 0.0
2014-Jul-20 04:31N 51°20' E 004°20'0 0.0
2014-Jul-20 03:31N 51°20' E 004°20'0 0.0
2014-Jul-20 02:24N 51°20' E 004°20'0 0.0
2014-Jul-20 01:33N 51°20' E 004°20'0 0.0
2014-Jul-20 00:32N 51°20' E 004°20'0 0.0
2014-Jul-19 23:32N 51°20' E 004°20'0 0.0
2014-Jul-19 22:31N 51°20' E 004°20'0 0.0
2014-Jul-19 21:28N 51°20' E 004°20'0 0.0
2014-Jul-19 20:27N 51°20' E 004°20'0 0.0
2014-Jul-19 19:30N 51°20' E 004°20'0 0.0
2014-Jul-19 18:24N 51°20' E 004°20'0 0.0
2014-Jul-19 17:32N 51°20' E 004°20'0 0.0
2014-Jul-19 16:26N 51°20' E 004°20'0 0.0
2014-Jul-19 15:28N 51°20' E 004°20'0 0.0
2014-Jul-19 14:31N 51°20' E 004°20'0 0.0
2014-Jul-19 13:34N 51°20' E 004°20'0 0.0
2014-Jul-19 12:33N 51°20' E 004°20'0 0.0
2014-Jul-19 11:32N 51°20' E 004°20'1 1.2
2014-Jul-19 10:33N 51°20' E 004°18'1 1.3
2014-Jul-19 09:33N 51°21' E 004°17'2 1.7
2014-Jul-19 08:34N 51°21' E 004°15'8 8.0
2014-Jul-19 07:34N 51°23' E 004°02'1010.4
2014-Jul-19 06:34N 51°22' E 003°46'1010.2
2014-Jul-19 05:34N 51°25' E 003°31'1818.4
2014-Jul-19 04:34N 51°24' E 003°01'1413.7
2014-Jul-19 03:33N 51°22' E 002°40'1414.2
2014-Jul-19 02:34N 51°19' E 002°17'1918.8
2014-Jul-19 01:33N 51°30' E 001°52'2019.5
2014-Jul-19 00:34N 51°48' E 001°43'1111.0
2014-Jul-18 23:34N 51°56' E 001°31'8 7.8
2014-Jul-18 22:31N 51°58' E 001°18'0 0.0
2014-Jul-18 21:34N 51°58' E 001°18'0 0.0
2014-Jul-18 20:33N 51°58' E 001°18'0 0.0
2014-Jul-18 19:33N 51°58' E 001°18'0 0.0
2014-Jul-18 18:32N 51°58' E 001°18'0 0.0
2014-Jul-18 17:32N 51°58' E 001°18'0 0.0
2014-Jul-18 16:31N 51°58' E 001°18'0 0.0
2014-Jul-18 15:31N 51°58' E 001°18'0 0.0
2014-Jul-18 14:31N 51°58' E 001°18'0 0.0
2014-Jul-18 13:33N 51°58' E 001°18'0 0.0
2014-Jul-18 12:33N 51°58' E 001°18'0 0.0
2014-Jul-18 11:32N 51°58' E 001°18'0 0.0
2014-Jul-18 10:32N 51°58' E 001°18'0 0.0
2014-Jul-18 09:31N 51°58' E 001°18'0 0.0
2014-Jul-18 08:31N 51°58' E 001°18'0 0.0
2014-Jul-18 07:34N 51°58' E 001°18'0 0.0
2014-Jul-18 06:33N 51°58' E 001°18'0 0.0
2014-Jul-18 05:33N 51°58' E 001°18'0 0.0
2014-Jul-18 04:32N 51°58' E 001°18'0 0.0
2014-Jul-18 03:32N 51°58' E 001°18'0 0.0
2014-Jul-18 02:31N 51°58' E 001°18'0 0.0
2014-Jul-18 01:31N 51°58' E 001°18'0 0.0
2014-Jul-18 00:33N 51°58' E 001°18'0 0.1
2014-Jul-17 23:33N 51°58' E 001°18'5 5.4
2014-Jul-17 22:33N 51°56' E 001°26'10 9.6
2014-Jul-17 21:33N 51°52' E 001°40'7 6.7
2014-Jul-17 20:33N 51°57' E 001°46'2 1.6
2014-Jul-17 19:33N 51°56' E 001°48'1010.1
2014-Jul-17 18:33N 51°46' E 001°49'1010.3
2014-Jul-17 17:34N 51°35' E 001°50'1211.5
2014-Jul-17 16:34N 51°24' E 001°45'1818.1
2014-Jul-17 15:33N 51°06' E 001°40'2221.9
2014-Jul-17 14:33N 50°47' E 001°23'2120.8
2014-Jul-17 13:33N 50°32' E 001°01'2222.2
2014-Jul-17 12:33N 50°25' E 000°27'2923.0
2014-Jul-17 11:17N 50°18' W 000°17'1723.0
2014-Jul-17 10:32N 50°12' W 000°42'2522.7
2014-Jul-17 09:25N 50°05' W 001°20'2121.6
2014-Jul-17 08:28N 50°00' W 001°51'  

Dump ship's entire track history